Terminal Aerodrome Forecast
Issued by NWS Mobile, AL

Home | Current Version | Previous Version | Text Only | Print | Product List | Glossary On
Versions: 1 2 3 4 5 6 7 8 9 10 11 12 13 14 15 16 17 18 19 20 21 22 23 24
000
FTUS44 KMOB 252320
TAFPNS
TAF
KPNS 252320Z 2600/2624 12008KT P6SM VCSH SKC
     FM260200 05004KT P6SM SCT030 BKN150
     FM261700 13006KT P6SM SCT040 SCT250 PROB30 2618/2624 VRB15G25KT
      4SM TSRA BKN025CB=

USA.gov is the U.S. government's official web portal to all federal, state and local government web resources and services.